Time;durP1;ratioP1;P1;durP2;ratioP2;P2;SDS_P1;SDS_P2;PMS_P1;PMS_P2;Temp;Humidity;BMP_temperature;BMP_pressure;BME280_temperature;BME280_humidity;BME280_pressure;Samples;Min_cycle;Max_cycle;Signal;HPM_P1;HPM_P2
2022/05/22 00:00:22;;;;;;;3.50;1.90;;;;;;;21.88;46.48;101863.19;5053133;28;20076;-60
2022/05/22 00:02:48;;;;;;;4.82;2.17;;;;;;;21.87;46.29;101862.34;5052640;28;20547;-60
2022/05/22 00:05:17;;;;;;;4.10;1.92;;;;;;;21.87;46.67;101862.34;5052345;28;20060;-60
2022/05/22 00:07:45;;;;;;;5.70;2.22;;;;;;;21.86;46.28;101852.69;5052861;28;20036;-60
2022/05/22 00:10:12;;;;;;;5.20;2.03;;;;;;;21.86;46.49;101852.69;5051786;28;20477;-60
2022/05/22 00:12:41;;;;;;;4.20;2.10;;;;;;;21.84;46.28;101852.00;5053065;28;20106;-60
2022/05/22 00:15:12;;;;;;;5.18;2.08;;;;;;;21.84;46.52;101846.69;5052480;28;20024;-60
2022/05/22 00:17:37;;;;;;;4.45;2.00;;;;;;;21.84;46.15;101846.69;5052027;28;20017;-61
2022/05/22 00:20:04;;;;;;;4.30;2.20;;;;;;;21.83;46.29;101842.31;5052325;28;20032;-60
2022/05/22 00:22:30;;;;;;;5.97;2.60;;;;;;;21.84;46.39;101845.81;5051725;28;20290;-61
2022/05/22 00:24:55;;;;;;;4.78;1.77;;;;;;;21.84;46.42;101853.78;5051851;28;20400;-60
2022/05/22 00:27:22;;;;;;;4.85;2.30;;;;;;;21.83;46.10;101847.63;5052726;28;20029;-60
2022/05/22 00:29:47;;;;;;;5.20;2.10;;;;;;;21.83;46.13;101838.84;5052303;28;20025;-61
2022/05/22 00:32:12;;;;;;;7.33;2.23;;;;;;;21.83;46.72;101838.84;5051868;28;20050;-60
2022/05/22 00:34:38;;;;;;;5.23;2.40;;;;;;;21.83;46.42;101833.53;5052691;28;20750;-60
2022/05/22 00:37:06;;;;;;;5.47;2.10;;;;;;;21.82;46.06;101837.16;5051989;28;20270;-60
2022/05/22 00:39:31;;;;;;;4.63;2.00;;;;;;;21.83;46.38;101836.19;5051974;28;20029;-60
2022/05/22 00:41:57;;;;;;;4.13;1.98;;;;;;;21.81;46.44;101831.00;5052150;28;20078;-60
2022/05/22 00:44:23;;;;;;;5.82;2.25;;;;;;;21.81;46.34;101835.44;5052004;28;20033;-60
2022/05/22 00:46:50;;;;;;;4.60;2.05;;;;;;;21.80;46.17;101837.28;5051708;28;20040;-61
2022/05/22 00:49:23;;;;;;;5.35;2.15;;;;;;;21.80;46.26;101826.66;5052367;28;20025;-60
2022/05/22 00:52:03;;;;;;;4.97;2.00;;;;;;;21.79;46.27;101824.97;5051875;28;20468;-60
2022/05/22 00:54:36;;;;;;;4.50;1.92;;;;;;;21.80;45.93;101829.31;5052132;28;20131;-60
2022/05/22 00:57:09;;;;;;;5.05;2.33;;;;;;;21.80;46.40;101833.78;5052236;28;20025;-61
2022/05/22 00:59:41;;;;;;;4.72;2.17;;;;;;;21.79;46.00;101824.13;5051568;28;20522;-60
2022/05/22 01:02:07;;;;;;;7.00;2.30;;;;;;;21.78;46.08;101820.66;5051933;28;20028;-61
2022/05/22 01:04:35;;;;;;;5.90;2.22;;;;;;;21.79;46.15;101818.81;5052244;28;20468;-60
2022/05/22 01:07:06;;;;;;;4.03;1.98;;;;;;;21.77;46.15;101813.63;5051515;28;20037;-62
2022/05/22 01:09:32;;;;;;;5.75;2.40;;;;;;;21.77;46.13;101815.47;5052399;28;20033;-61
2022/05/22 01:12:02;;;;;;;4.03;2.10;;;;;;;21.76;46.14;101822.56;5051617;28;20090;-60
2022/05/22 01:14:28;;;;;;;4.82;2.10;;;;;;;21.76;46.24;101825.22;5051845;28;20032;-60
2022/05/22 01:16:54;;;;;;;5.50;2.10;;;;;;;21.74;46.20;101827.97;5051914;28;20086;-61
2022/05/22 01:19:23;;;;;;;6.72;2.42;;;;;;;21.76;45.96;101825.22;5052283;28;20464;-60
2022/05/22 01:22:01;;;;;;;5.60;2.30;;;;;;;21.75;46.24;101826.19;5051393;28;20025;-60
2022/05/22 01:24:26;;;;;;;4.63;2.10;;;;;;;21.74;46.21;101824.50;5052263;28;20106;-61
2022/05/22 01:26:53;;;;;;;4.00;1.85;;;;;;;21.74;46.01;101821.84;5051596;28;20465;-61
2022/05/22 01:29:19;;;;;;;5.03;2.38;;;;;;;21.73;45.90;101810.41;5051399;28;20551;-61
2022/05/22 01:31:45;;;;;;;5.53;2.10;;;;;;;21.73;45.92;101810.41;5052292;28;20052;-61
2022/05/22 01:34:11;;;;;;;5.00;1.92;;;;;;;21.72;46.27;101805.22;5053950;28;20017;-61
2022/05/22 01:36:36;;;;;;;6.32;2.28;;;;;;;21.72;46.32;101797.25;5055275;28;20021;-61
2022/05/22 01:39:01;;;;;;;5.35;2.10;;;;;;;21.70;46.04;101786.78;5055432;28;20028;-60
2022/05/22 01:41:26;;;;;;;5.03;2.17;;;;;;;21.72;46.09;101791.97;5055496;28;20037;-61
2022/05/22 01:43:52;;;;;;;5.63;2.20;;;;;;;21.71;45.97;101785.81;5054681;28;20044;-60
2022/05/22 01:46:17;;;;;;;4.50;2.10;;;;;;;21.71;46.02;101788.47;5055510;28;20024;-62
2022/05/22 01:48:45;;;;;;;5.13;2.25;;;;;;;21.69;45.91;101785.06;5054982;28;20036;-60
2022/05/22 01:51:10;;;;;;;4.88;2.42;;;;;;;21.69;46.15;101784.25;5055124;28;20026;-61
2022/05/22 01:53:36;;;;;;;6.17;2.20;;;;;;;21.69;46.07;101786.91;5055573;28;20036;-61
2022/05/22 01:56:04;;;;;;;5.50;2.10;;;;;;;21.68;45.81;101775.44;5054170;28;20292;-60
2022/05/22 01:58:29;;;;;;;4.38;2.20;;;;;;;21.69;45.97;101789.56;5055261;28;20112;-60
2022/05/22 02:01:11;;;;;;;4.20;2.00;;;;;;;21.67;45.75;101792.34;5054910;28;20033;-60
2022/05/22 02:03:36;;;;;;;4.95;2.25;;;;;;;21.67;45.76;101791.50;5054769;28;20102;-60
2022/05/22 02:06:01;;;;;;;4.63;2.05;;;;;;;21.67;45.88;101789.69;5054923;28;20017;-60
2022/05/22 02:08:27;;;;;;;5.13;2.00;;;;;;;21.67;45.87;101783.53;5054940;28;20536;-60
2022/05/22 02:10:58;;;;;;;4.63;2.30;;;;;;;21.66;46.14;101782.69;5054287;28;20511;-61
2022/05/22 02:13:31;;;;;;;5.57;1.98;;;;;;;21.66;45.96;101781.84;5054923;28;20028;-60
2022/05/22 02:15:56;;;;;;;5.68;2.40;;;;;;;21.65;45.76;101777.50;5054543;28;20040;-60
2022/05/22 02:18:22;;;;;;;4.90;1.90;;;;;;;21.64;45.58;101775.81;5054623;28;20028;-61
2022/05/22 02:20:48;;;;;;;4.45;1.90;;;;;;;21.64;45.79;101771.34;5054773;28;20031;-61
2022/05/22 02:23:18;;;;;;;4.95;2.28;;;;;;;21.64;46.03;101766.06;5054288;28;20480;-60
2022/05/22 02:25:47;;;;;;;4.80;2.08;;;;;;;21.63;45.90;101766.19;5054148;28;20028;-60
2022/05/22 02:28:14;;;;;;;5.72;2.10;;;;;;;21.62;45.71;101754.72;5054507;28;20025;-60
2022/05/22 02:30:41;;;;;;;4.45;2.00;;;;;;;21.61;45.60;101761.00;5054357;28;20029;-60
2022/05/22 02:33:07;;;;;;;4.80;2.17;;;;;;;21.61;45.54;101749.56;5053903;28;20492;-61
2022/05/22 02:35:32;;;;;;;5.28;1.95;;;;;;;21.60;45.63;101754.00;5054405;28;20071;-60
2022/05/22 02:37:58;;;;;;;5.53;2.08;;;;;;;21.60;45.64;101753.16;5053546;28;20029;-60
2022/05/22 02:40:28;;;;;;;4.43;1.90;;;;;;;21.60;45.77;101748.69;5054714;28;20037;-60
2022/05/22 02:42:54;;;;;;;5.20;2.20;;;;;;;21.59;45.72;101748.81;5053958;28;20377;-60
2022/05/22 02:45:26;;;;;;;4.95;2.10;;;;;;;21.59;45.44;101740.84;5053357;28;20021;-61
2022/05/22 02:47:54;;;;;;;4.68;2.05;;;;;;;21.58;45.70;101734.72;5054342;28;20384;-60
2022/05/22 02:50:23;;;;;;;5.80;2.28;;;;;;;21.58;45.61;101736.53;5054126;28;20032;-60
2022/05/22 02:52:48;;;;;;;4.70;2.25;;;;;;;21.58;45.41;101734.72;5053616;28;20051;-60
2022/05/22 02:55:14;;;;;;;5.72;2.03;;;;;;;21.56;45.78;101734.84;5054408;28;20476;-60
2022/05/22 02:57:40;;;;;;;4.60;2.13;;;;;;;21.57;45.45;101741.00;5054274;28;20471;-61
2022/05/22 03:00:14;;;;;;;4.95;2.10;;;;;;;21.56;45.73;101745.47;5053382;28;20100;-60
2022/05/22 03:02:39;;;;;;;6.35;2.45;;;;;;;21.55;45.42;101742.94;5054398;28;20028;-60
2022/05/22 03:05:05;;;;;;;5.00;1.93;;;;;;;21.55;45.86;101748.22;5053791;28;20025;-61
2022/05/22 03:07:34;;;;;;;4.95;1.90;;;;;;;21.53;45.57;101739.56;5053580;28;20282;-60
2022/05/22 03:09:59;;;;;;;3.83;1.90;;;;;;;21.54;45.51;101738.59;5053841;28;20017;-60
2022/05/22 03:12:24;;;;;;;4.20;1.70;;;;;;;21.53;45.57;101728.97;5053792;28;20496;-60
2022/05/22 03:14:55;;;;;;;5.18;2.28;;;;;;;21.53;45.90;101732.44;5052917;28;20359;-60
2022/05/22 03:17:22;;;;;;;6.03;2.10;;;;;;;21.53;45.97;101728.97;5053908;28;20025;-60
2022/05/22 03:19:47;;;;;;;4.97;2.10;;;;;;;21.52;45.67;101730.78;5053480;28;20020;-60
2022/05/22 03:22:14;;;;;;;5.28;2.20;;;;;;;21.51;45.54;101734.38;5053119;28;20029;-61
2022/05/22 03:24:40;;;;;;;5.57;2.22;;;;;;;21.51;45.41;101725.59;5055101;28;20036;-60
2022/05/22 03:27:10;;;;;;;4.88;2.00;;;;;;;21.50;45.44;101721.25;5054521;28;20044;-60
2022/05/22 03:29:35;;;;;;;5.30;2.35;;;;;;;21.51;45.43;101709.69;5055571;28;20485;-60
2022/05/22 03:32:01;;;;;;;4.63;2.17;;;;;;;21.49;45.52;101717.78;5053618;28;20104;-60
2022/05/22 03:34:26;;;;;;;5.60;2.10;;;;;;;21.50;45.59;101711.47;5052824;28;20388;-60
2022/05/22 03:36:51;;;;;;;4.30;1.90;;;;;;;21.49;45.69;101706.28;5053305;28;20362;-60
2022/05/22 03:39:17;;;;;;;5.80;2.20;;;;;;;21.49;45.31;101711.59;5053078;28;20278;-61
2022/05/22 03:41:42;;;;;;;4.68;2.10;;;;;;;21.49;45.80;101715.13;5052895;28;20025;-60
2022/05/22 03:44:07;;;;;;;5.40;2.10;;;;;;;21.48;45.23;101704.59;5053045;28;20564;-61
2022/05/22 03:46:34;;;;;;;5.88;2.30;;;;;;;21.48;45.67;101704.59;5052991;28;20075;-61
2022/05/22 03:48:59;;;;;;;6.20;2.30;;;;;;;21.47;45.50;101695.78;5052309;28;20067;-60
2022/05/22 03:51:25;;;;;;;5.17;2.10;;;;;;;21.47;45.25;101689.66;5053421;28;20025;-60
2022/05/22 03:53:50;;;;;;;4.80;2.30;;;;;;;21.46;45.26;101686.16;5052761;28;20273;-59
2022/05/22 03:56:17;;;;;;;4.40;2.10;;;;;;;21.46;45.50;101691.47;5051801;28;20044;-60
2022/05/22 03:58:43;;;;;;;4.80;2.05;;;;;;;21.46;45.42;101690.59;5052754;28;20079;-60
2022/05/22 04:01:09;;;;;;;4.72;2.13;;;;;;;21.45;45.48;101694.25;5052507;28;20029;-60
2022/05/22 04:03:35;;;;;;;5.38;2.25;;;;;;;21.44;45.18;101695.19;5052394;28;20079;-59
2022/05/22 04:06:04;;;;;;;4.47;2.08;;;;;;;21.44;45.59;101711.13;5052725;28;20029;-60
2022/05/22 04:08:30;;;;;;;5.03;2.30;;;;;;;21.44;45.59;101711.13;5052918;28;20112;-61
2022/05/22 04:10:56;;;;;;;5.07;1.98;;;;;;;21.43;45.54;101712.94;5052076;28;20460;-59
2022/05/22 04:13:23;;;;;;;5.75;2.20;;;;;;;21.43;45.36;101712.94;5052721;28;20484;-60
2022/05/22 04:15:48;;;;;;;6.22;2.30;;;;;;;21.42;45.35;101708.59;5052399;28;20052;-61
2022/05/22 04:18:14;;;;;;;5.50;2.00;;;;;;;21.41;45.34;101695.44;5052108;28;20059;-61
2022/05/22 04:20:39;;;;;;;3.50;1.85;;;;;;;21.41;45.60;101698.94;5052945;28;20022;-60
2022/05/22 04:25:56;;;;;;;4.13;1.90;;;;;;;21.42;45.51;101705.09;5052619;28;20036;-60
2022/05/22 04:28:23;;;;;;;5.18;1.95;;;;;;;21.42;45.24;101699.81;5052444;28;20568;-60
2022/05/22 04:30:49;;;;;;;6.00;2.40;;;;;;;21.42;45.28;101694.50;5051752;28;20044;-60
2022/05/22 04:33:14;;;;;;;5.03;2.30;;;;;;;21.41;45.45;101692.81;5052646;28;20025;-59
2022/05/22 04:35:40;;;;;;;4.63;2.40;;;;;;;21.41;45.29;101690.97;5052439;28;20032;-60
2022/05/22 04:38:08;;;;;;;4.60;1.92;;;;;;;21.40;45.57;101694.63;5051837;28;20353;-61
2022/05/22 04:40:33;;;;;;;4.55;2.22;;;;;;;21.41;45.72;101692.81;5052568;28;20426;-60
2022/05/22 04:43:01;;;;;;;3.97;1.93;;;;;;;21.40;45.64;101699.94;5052099;28;20025;-60
2022/05/22 04:45:30;;;;;;;4.88;2.28;;;;;;;21.41;45.65;101706.06;5051962;28;20266;-60
2022/05/22 04:47:55;;;;;;;5.50;2.00;;;;;;;21.41;45.62;101709.53;5052112;28;20066;-61
2022/05/22 04:50:23;;;;;;;4.40;2.27;;;;;;;21.40;45.34;101712.34;5052254;28;20025;-60
2022/05/22 04:52:51;;;;;;;4.80;2.13;;;;;;;21.41;45.75;101706.88;5051619;28;20037;-60
2022/05/22 04:55:16;;;;;;;4.65;2.20;;;;;;;21.41;45.63;101706.06;5052342;28;20053;-59
2022/05/22 04:57:43;;;;;;;5.93;2.25;;;;;;;21.41;45.37;101703.41;5052024;28;20057;-62
2022/05/22 05:00:10;;;;;;;4.75;2.17;;;;;;;21.40;45.67;101696.44;5051480;28;20990;-61
2022/05/22 05:02:37;;;;;;;4.60;2.03;;;;;;;21.41;45.35;101690.16;5052242;28;20465;-60
2022/05/22 05:05:05;;;;;;;7.07;2.22;;;;;;;21.40;45.30;101691.97;5051797;28;20403;-59
2022/05/22 05:07:31;;;;;;;6.43;2.20;;;;;;;21.40;45.75;101686.66;5051842;28;20021;-60
2022/05/22 05:09:56;;;;;;;5.47;2.17;;;;;;;21.40;45.62;101691.13;5055770;28;20029;-59
2022/05/22 05:12:22;;;;;;;4.57;2.07;;;;;;;21.40;45.33;101686.66;5055725;28;20130;-60
2022/05/22 05:14:47;;;;;;;4.53;2.15;;;;;;;21.40;45.22;101691.13;5055659;28;20298;-60
2022/05/22 05:17:17;;;;;;;4.53;2.30;;;;;;;21.40;45.27;101691.97;5055601;28;20025;-60
2022/05/22 05:19:43;;;;;;;5.13;2.50;;;;;;;21.40;45.57;101688.47;5055545;28;20052;-60
2022/05/22 05:22:09;;;;;;;4.82;2.42;;;;;;;21.40;45.33;101691.97;5053292;28;20041;-59
2022/05/22 05:24:34;;;;;;;5.85;2.30;;;;;;;21.40;45.18;101694.63;5055715;28;20021;-60
2022/05/22 05:26:59;;;;;;;4.95;2.38;;;;;;;21.41;45.17;101693.63;5054907;28;20025;-60
2022/05/22 05:29:25;;;;;;;6.78;2.50;;;;;;;21.41;45.38;101690.16;5056176;28;20025;-60
2022/05/22 05:31:54;;;;;;;4.47;2.20;;;;;;;21.41;45.46;101685.69;5055108;28;20116;-60
2022/05/22 05:34:19;;;;;;;6.53;2.45;;;;;;;21.40;45.50;101685.84;5055185;28;20028;-60
2022/05/22 05:36:45;;;;;;;7.00;2.33;;;;;;;21.40;45.71;101691.97;5055789;28;20492;-59
2022/05/22 05:39:11;;;;;;;4.10;2.10;;;;;;;21.40;45.72;101694.63;5055078;28;20460;-60
2022/05/22 05:41:40;;;;;;;5.28;2.33;;;;;;;21.41;45.44;101693.63;5054985;28;20076;-60
2022/05/22 05:44:06;;;;;;;4.72;2.25;;;;;;;21.42;45.38;101699.81;5055448;28;20017;-60
2022/05/22 05:46:35;;;;;;;5.55;2.13;;;;;;;21.42;45.21;101699.81;5055277;28;20029;-59
2022/05/22 05:49:02;;;;;;;4.53;2.08;;;;;;;21.42;45.46;101692.69;5053774;28;20397;-62
2022/05/22 05:51:27;;;;;;;4.68;2.25;;;;;;;21.43;45.53;101696.16;5055426;28;20108;-60
2022/05/22 05:53:53;;;;;;;4.00;2.30;;;;;;;21.42;45.73;101697.16;5054676;28;20076;-59
2022/05/22 05:56:18;;;;;;;5.15;2.33;;;;;;;21.42;45.53;101697.97;5054907;28;20028;-61
2022/05/22 05:58:43;;;;;;;4.63;2.30;;;;;;;21.42;45.51;101699.81;5055344;28;20025;-60
2022/05/22 06:01:16;;;;;;;5.20;2.30;;;;;;;21.43;46.12;101704.97;5054625;28;20116;-60
2022/05/22 06:03:42;;;;;;;4.33;2.20;;;;;;;21.44;45.88;101697.84;5054785;28;20029;-60
2022/05/22 06:06:12;;;;;;;5.38;2.22;;;;;;;21.44;45.83;101701.34;5055453;28;20653;-61
2022/05/22 06:08:38;;;;;;;4.13;1.92;;;;;;;21.47;46.41;101694.94;5056021;28;20017;-60
2022/05/22 06:11:03;;;;;;;5.53;2.08;;;;;;;21.52;46.30;101703.41;5055657;28;20040;-61
2022/05/22 06:13:29;;;;;;;4.20;1.85;;;;;;;21.56;46.07;101696.88;5055121;28;20087;-60
2022/05/22 06:15:54;;;;;;;5.95;2.65;;;;;;;21.59;45.87;101703.72;5054290;28;20037;-59
2022/05/22 06:18:20;;;;;;;5.80;2.00;;;;;;;21.60;45.91;101698.28;5055027;28;20385;-60
2022/05/22 06:20:46;;;;;;;4.22;1.90;;;;;;;21.63;46.12;101698.03;5053590;28;20270;-61
2022/05/22 06:23:12;;;;;;;6.20;2.20;;;;;;;21.67;46.12;101704.78;5053862;28;20060;-62
2022/05/22 06:25:39;;;;;;;4.85;2.30;;;;;;;21.71;45.98;101700.94;5054796;28;20017;-63
2022/05/22 06:28:05;;;;;;;3.60;2.05;;;;;;;21.75;45.88;101701.50;5054384;28;20108;-63
2022/05/22 06:30:30;;;;;;;5.18;2.00;;;;;;;21.79;45.83;101705.56;5054336;28;20152;-63
2022/05/22 06:33:00;;;;;;;6.50;3.43;;;;;;;21.77;44.96;101710.16;5054348;28;20111;-61
2022/05/22 06:35:25;;;;;;;5.00;2.20;;;;;;;21.78;45.49;101703.03;5054998;28;20784;-62
2022/05/22 06:37:50;;;;;;;5.38;2.28;;;;;;;21.83;45.90;101708.81;5054240;28;20044;-63
2022/05/22 06:40:16;;;;;;;5.17;2.50;;;;;;;21.89;45.94;101708.31;5054935;28;20029;-63
2022/05/22 06:42:44;;;;;;;4.28;2.25;;;;;;;21.96;45.70;101711.28;5054756;28;20280;-66
2022/05/22 06:45:15;;;;;;;4.88;2.20;;;;;;;22.00;45.49;101702.94;5053586;28;20480;-65
2022/05/22 06:47:42;;;;;;;5.53;2.05;;;;;;;22.06;45.58;101717.50;5054878;28;20094;-66
2022/05/22 06:50:13;;;;;;;6.28;2.42;;;;;;;22.10;45.70;101705.66;5054242;28;20052;-67
2022/05/22 06:52:39;;;;;;;6.28;2.63;;;;;;;22.14;45.53;101712.38;5053952;28;20536;-67
2022/05/22 06:55:05;;;;;;;6.07;2.42;;;;;;;22.17;45.40;101695.34;5054843;28;20116;-66
2022/05/22 06:57:31;;;;;;;5.63;2.08;;;;;;;22.19;45.43;101710.19;5055143;28;20112;-66
2022/05/22 06:59:58;;;;;;;4.55;2.00;;;;;;;22.23;45.24;101714.25;5053476;28;20063;-66
2022/05/22 07:02:29;;;;;;;9.65;2.55;;;;;;;22.25;45.16;101706.16;5054299;28;20060;-64
2022/05/22 07:04:59;;;;;;;4.03;1.88;;;;;;;22.23;45.33;101708.94;5054028;28;20041;-64
2022/05/22 07:07:25;;;;;;;5.32;2.22;;;;;;;22.25;45.06;101706.16;5054334;28;20032;-65
2022/05/22 07:09:50;;;;;;;6.28;2.28;;;;;;;22.27;45.06;101705.06;5053984;28;20025;-64
2022/05/22 07:12:16;;;;;;;5.03;2.17;;;;;;;22.33;45.36;101705.53;5053995;28;20036;-63
2022/05/22 07:14:42;;;;;;;5.68;2.70;;;;;;;22.35;44.87;101699.13;5053983;28;20029;-61
2022/05/22 07:17:09;;;;;;;5.18;2.30;;;;;;;22.38;45.37;101696.22;5054390;28;20051;-60
2022/05/22 07:19:34;;;;;;;6.88;2.20;;;;;;;22.37;45.05;101693.69;5053272;28;20029;-61
2022/05/22 07:22:01;;;;;;;6.38;2.20;;;;;;;22.37;45.41;101702.47;5053846;28;20477;-63
2022/05/22 07:24:27;;;;;;;4.90;2.25;;;;;;;22.39;45.34;101697.88;5053348;28;20516;-62
2022/05/22 07:26:52;;;;;;;6.32;2.47;;;;;;;22.40;45.24;101690.78;5052844;28;20036;-61
2022/05/22 07:29:20;;;;;;;5.80;2.20;;;;;;;22.40;44.94;101690.78;5053725;28;20037;-61
2022/05/22 07:31:45;;;;;;;7.15;2.80;;;;;;;22.39;44.79;101684.59;5053234;28;20114;-62
2022/05/22 07:34:14;;;;;;;5.87;2.20;;;;;;;22.39;45.19;101687.25;5052517;28;20060;-61
2022/05/22 07:36:39;;;;;;;4.93;2.05;;;;;;;22.41;44.86;101692.44;5053618;28;20032;-63
2022/05/22 07:39:06;;;;;;;5.23;2.57;;;;;;;22.42;44.94;101691.47;5053033;28;20487;-63
2022/05/22 07:41:31;;;;;;;4.60;2.15;;;;;;;22.43;44.92;101690.47;5052924;28;20270;-60
2022/05/22 07:43:57;;;;;;;6.82;2.20;;;;;;;22.44;44.65;101687.69;5052928;28;20029;-61
2022/05/22 07:46:23;;;;;;;5.40;2.13;;;;;;;22.45;44.79;101688.53;5052944;28;20140;-59
2022/05/22 07:48:48;;;;;;;6.15;2.30;;;;;;;22.46;45.03;101685.75;5053322;28;20055;-60
2022/05/22 07:51:14;;;;;;;6.25;2.08;;;;;;;22.46;45.04;101688.41;5053543;28;20020;-61
2022/05/22 07:53:40;;;;;;;5.25;2.28;;;;;;;22.48;44.58;101679.44;5053796;28;20021;-61
2022/05/22 07:56:05;;;;;;;4.90;2.25;;;;;;;22.48;44.82;101671.50;5052394;28;20040;-66
2022/05/22 07:58:34;;;;;;;7.27;1.70;;;;;;;22.48;44.96;101666.16;5053230;28;20021;-60
2022/05/22 08:01:01;;;;;;;3.33;1.83;;;;;;;22.49;44.61;101659.91;5052631;28;20638;-62
2022/05/22 08:03:27;;;;;;;5.00;2.00;;;;;;;22.48;43.57;101666.16;5052711;28;20017;-61
2022/05/22 08:05:54;;;;;;;6.47;2.20;;;;;;;22.47;43.72;101668.00;5052619;28;20031;-62
2022/05/22 08:08:19;;;;;;;7.05;2.22;;;;;;;22.47;44.29;101668.00;5053495;28;20029;-61
2022/05/22 08:10:45;;;;;;;6.70;1.90;;;;;;;22.52;44.47;101662.28;5052461;28;20040;-66
2022/05/22 08:13:12;;;;;;;4.47;1.80;;;;;;;22.52;44.29;101667.59;5052298;28;20032;-63
2022/05/22 08:15:40;;;;;;;5.03;1.85;;;;;;;22.53;44.32;101663.97;5052192;28;20055;-59
2022/05/22 08:18:07;;;;;;;5.68;1.70;;;;;;;22.54;44.24;101655.03;5052770;28;20017;-64
2022/05/22 08:20:38;;;;;;;4.80;1.75;;;;;;;22.56;44.31;101653.91;5052776;28;20043;-62
2022/05/22 08:23:10;;;;;;;4.97;1.77;;;;;;;22.56;44.26;101643.28;5053515;28;20045;-63
2022/05/22 08:25:36;;;;;;;4.70;1.88;;;;;;;22.59;44.31;101647.50;5053936;28;20104;-63
2022/05/22 08:28:04;;;;;;;4.70;1.50;;;;;;;22.57;44.65;101639.69;5052068;28;20100;-63
2022/05/22 08:30:33;;;;;;;4.50;1.70;;;;;;;22.57;44.35;101623.72;5052476;28;20029;-63
2022/05/22 08:32:58;;;;;;;6.75;2.03;;;;;;;22.57;44.74;101621.09;5053063;28;20029;-64
2022/05/22 08:35:28;;;;;;;4.53;1.52;;;;;;;22.59;43.53;101620.94;5052885;28;20117;-63
2022/05/22 08:37:54;;;;;;;5.40;2.33;;;;;;;22.58;44.02;101621.91;5052187;28;20060;-60
2022/05/22 08:40:22;;;;;;;5.53;1.33;;;;;;;22.56;44.79;101610.59;5052431;28;20487;-60
2022/05/22 08:42:52;;;;;;;5.25;1.70;;;;;;;22.53;44.86;101611.69;5053626;28;20032;-61
2022/05/22 08:45:27;;;;;;;5.03;1.70;;;;;;;22.50;44.36;101604.00;5058482;28;20451;-60
2022/05/22 08:48:12;;;;;;;4.28;1.73;;;;;;;22.47;44.86;101604.25;5058554;28;20083;-61
2022/05/22 08:50:37;;;;;;;3.85;1.70;;;;;;;22.44;44.70;101593.91;5058407;28;20112;-60
2022/05/22 08:53:20;;;;;;;4.78;1.60;;;;;;;22.42;44.85;101599.34;5058665;28;20100;-60
2022/05/22 08:59:01;;;;;;;3.40;1.50;;;;;;;22.38;45.19;101603.25;5058846;28;20059;-62
2022/05/22 09:02:09;;;;;;;6.88;1.70;;;;;;;22.38;44.73;101597.09;5059296;28;20025;-63
2022/05/22 09:04:43;;;;;;;6.72;2.15;;;;;;;22.39;44.71;101596.13;5059008;28;20476;-63
2022/05/22 09:08:02;;;;;;;4.03;1.73;;;;;;;22.43;44.66;101585.09;5058692;28;20102;-62
2022/05/22 09:10:45;;;;;;;6.03;1.92;;;;;;;22.48;44.28;101583.84;5058875;28;20037;-64
2022/05/22 09:13:25;;;;;;;5.00;1.85;;;;;;;22.52;44.52;101585.25;5058200;28;20054;-62
2022/05/22 09:16:08;;;;;;;4.43;1.75;;;;;;;22.55;44.47;101585.00;5058180;28;20036;-62
2022/05/22 09:18:47;;;;;;;4.95;1.90;;;;;;;22.57;44.29;101577.72;5059070;28;20021;-63
2022/05/22 09:21:32;;;;;;;4.15;1.80;;;;;;;22.60;44.37;101575.63;5059070;28;20029;-61
2022/05/22 09:24:02;;;;;;;3.70;1.65;;;;;;;22.61;44.27;101569.34;5058139;28;20099;-61
2022/05/22 09:26:44;;;;;;;4.80;1.73;;;;;;;22.64;44.22;101570.91;5058285;28;20458;-61
2022/05/22 09:29:27;;;;;;;4.63;1.60;;;;;;;22.66;44.13;101555.66;5058270;28;20059;-62
2022/05/22 09:32:13;;;;;;;4.82;1.77;;;;;;;22.67;44.27;101557.34;5058374;28;20032;-61
2022/05/22 09:35:00;;;;;;;4.55;1.52;;;;;;;22.70;44.31;101558.88;5058154;28;20032;-61
2022/05/22 09:37:43;;;;;;;3.25;1.77;;;;;;;22.72;44.14;101557.75;5058655;28;20052;-61
2022/05/22 09:40:32;;;;;;;3.33;1.60;;;;;;;22.73;44.01;101562.09;5058038;28;20045;-61
2022/05/22 09:43:16;;;;;;;3.83;1.55;;;;;;;22.75;43.93;101552.16;5058490;28;20492;-61
2022/05/22 09:46:29;;;;;;;3.97;1.48;;;;;;;22.76;44.06;101543.19;5058548;28;20021;-63
2022/05/22 09:48:57;;;;;;;3.35;1.70;;;;;;;22.78;43.60;101535.09;5057322;28;20032;-63
2022/05/22 09:51:42;;;;;;;4.47;1.85;;;;;;;22.79;43.74;101542.94;5058364;28;20029;-62
2022/05/22 09:54:30;;;;;;;5.25;1.98;;;;;;;22.80;44.12;101543.78;5057348;28;20024;-61
2022/05/22 09:57:10;;;;;;;4.93;1.70;;;;;;;22.82;43.47;101552.44;5055165;28;20029;-63
2022/05/22 10:00:11;;;;;;;5.38;2.15;;;;;;;22.78;42.19;101551.91;5055280;28;20040;-61
2022/05/22 10:03:08;;;;;;;8.00;2.60;;;;;;;22.73;40.93;101554.13;5054690;28;20025;-62
2022/05/22 10:06:01;;;;;;;12.70;2.80;;;;;;;22.69;40.00;101551.88;5055209;28;20055;-62
2022/05/22 10:08:54;;;;;;;5.25;2.30;;;;;;;22.61;40.19;101548.09;5054890;28;20021;-60
2022/05/22 10:11:26;;;;;;;6.30;2.60;;;;;;;22.54;39.77;101543.44;5055022;28;20029;-60
2022/05/22 10:14:19;;;;;;;7.45;2.38;;;;;;;22.51;39.65;101543.72;5054487;28;20060;-59
2022/05/22 10:17:11;;;;;;;5.43;2.35;;;;;;;22.47;40.18;101537.84;5054407;28;20075;-59
2022/05/22 10:20:08;;;;;;;6.13;2.05;;;;;;;22.48;40.99;101536.88;5054626;28;20542;-63
2022/05/22 10:23:16;;;;;;;5.45;2.25;;;;;;;22.44;40.04;101531.00;4983064;28;20402;-60
2022/05/22 10:26:02;;;;;;;6.05;2.30;;;;;;;22.41;40.32;101541.06;5011217;28;20052;-62
2022/05/22 10:29:08;;;;;;;6.70;2.40;;;;;;;22.41;41.42;101535.75;5055144;28;20028;-61
2022/05/22 10:31:39;;;;;;;7.50;2.10;;;;;;;22.45;41.94;101527.38;4974959;28;20039;-61
2022/05/22 10:34:33;;;;;;;5.50;1.95;;;;;;;22.48;42.50;101525.41;5040170;28;20083;-62
2022/05/22 10:37:14;;;;;;;6.55;1.95;;;;;;;22.52;42.88;101527.66;5054024;28;20040;-64
2022/05/22 10:39:39;;;;;;;5.05;1.90;;;;;;;22.60;43.23;101521.66;5054938;28;20037;-62
2022/05/22 10:45:10;;;;;;;5.50;1.75;;;;;;;22.73;43.13;101511.63;5053630;28;20081;-62
2022/05/22 10:47:35;;;;;;;4.65;1.70;;;;;;;22.74;43.12;101504.47;5054195;28;20032;-62
2022/05/22 10:50:21;;;;;;;13.65;2.10;;;;;;;22.76;43.20;101502.50;5054060;28;20376;-63
2022/05/22 10:52:47;;;;;;;5.55;1.73;;;;;;;22.76;43.73;101499.84;5054967;28;20159;-66
2022/05/22 10:55:20;;;;;;;3.83;1.70;;;;;;;22.74;43.63;101497.34;5053601;28;20124;-68
2022/05/22 10:57:57;;;;;;;4.25;1.70;;;;;;;22.72;43.91;101488.69;5053612;28;20021;-65
2022/05/22 11:00:24;;;;;;;6.25;2.30;;;;;;;22.70;41.66;101484.47;5054181;28;20033;-65
2022/05/22 11:02:50;;;;;;;6.50;2.60;;;;;;;22.64;40.85;101475.25;5053809;28;20025;-63
2022/05/22 11:05:22;;;;;;;6.32;2.70;;;;;;;22.60;40.87;101476.50;5053873;28;20562;-62
2022/05/22 11:07:54;;;;;;;7.93;3.08;;;;;;;22.58;40.30;101475.81;5054551;28;20480;-62
2022/05/22 11:10:33;;;;;;;5.45;2.15;;;;;;;22.55;41.16;101486.72;5054235;28;20029;-61
2022/05/22 11:13:03;;;;;;;7.63;2.05;;;;;;;22.53;42.13;101478.88;5053406;28;20103;-60
2022/05/22 11:15:31;;;;;;;3.88;1.48;;;;;;;22.52;41.92;101476.38;5053700;28;20059;-61
2022/05/22 11:18:09;;;;;;;7.45;2.38;;;;;;;22.53;42.41;101470.09;5053397;28;20354;-62
2022/05/22 11:20:43;;;;;;;4.82;2.03;;;;;;;22.51;40.82;101466.69;5053293;28;20021;-62
2022/05/22 11:23:37;;;;;;;6.38;2.25;;;;;;;22.51;40.01;101461.38;5053018;28;20224;-62
2022/05/22 11:26:30;;;;;;;6.25;2.17;;;;;;;22.48;41.36;101451.03;5052946;28;20029;-61
2022/05/22 11:29:10;;;;;;;5.55;2.17;;;;;;;22.46;42.07;101446.72;5053352;28;20078;-61
2022/05/22 11:31:58;;;;;;;5.82;2.20;;;;;;;22.49;40.60;101434.13;5053461;28;20068;-60
2022/05/22 11:34:42;;;;;;;6.57;2.05;;;;;;;22.48;40.34;101433.31;5052910;28;20132;-59
2022/05/22 11:37:13;;;;;;;5.47;1.80;;;;;;;22.48;40.25;101424.47;5053005;28;20043;-60
2022/05/22 11:39:49;;;;;;;5.68;1.85;;;;;;;22.46;40.30;101414.84;5052895;28;20427;-60
2022/05/22 11:42:30;;;;;;;6.45;1.50;;;;;;;22.45;40.36;101421.13;5053693;28;20373;-59
2022/05/22 11:45:19;;;;;;;5.53;2.05;;;;;;;22.44;40.58;101419.44;5052837;28;20047;-59
2022/05/22 11:48:16;;;;;;;4.97;1.80;;;;;;;22.43;40.86;101415.13;5052842;28;20056;-59